sensor_id;sensor_type;location;lat;lon;timestamp;pressure;altitude;pressure_sealevel;temperature;humidity
13456;BME280;6800;50.940;6.940;2022-07-06T00:02:39;101710.94;;;28.60;28.31
13456;BME280;6800;50.940;6.940;2022-07-06T00:06:39;101709.41;;;28.65;28.68
13456;BME280;6800;50.940;6.940;2022-07-06T00:10:40;101716.63;;;28.34;28.69
13456;BME280;6800;50.940;6.940;2022-07-06T00:14:41;101710.38;;;28.41;28.96
13456;BME280;6800;50.940;6.940;2022-07-06T00:18:41;101721.28;;;28.40;29.32
13456;BME280;6800;50.940;6.940;2022-07-06T00:22:41;101722.81;;;28.12;29.79
13456;BME280;6800;50.940;6.940;2022-07-06T00:26:42;101722.03;;;27.95;29.92
13456;BME280;6800;50.940;6.940;2022-07-06T00:30:42;101714.31;;;28.31;29.81
13456;BME280;6800;50.940;6.940;2022-07-06T00:34:42;101708.91;;;28.00;29.16
13456;BME280;6800;50.940;6.940;2022-07-06T00:38:43;101712.47;;;27.93;29.62
13456;BME280;6800;50.940;6.940;2022-07-06T00:42:45;101729.56;;;28.00;29.67
13456;BME280;6800;50.940;6.940;2022-07-06T00:46:46;101717.47;;;27.96;29.57
13456;BME280;6800;50.940;6.940;2022-07-06T00:50:46;101713.94;;;28.03;29.87
13456;BME280;6800;50.940;6.940;2022-07-06T00:54:47;101718.47;;;28.03;29.55
13456;BME280;6800;50.940;6.940;2022-07-06T00:58:47;101726.59;;;27.78;30.10
13456;BME280;6800;50.940;6.940;2022-07-06T01:02:48;101718.53;;;27.78;29.92
13456;BME280;6800;50.940;6.940;2022-07-06T01:06:48;101725.31;;;27.58;30.33
13456;BME280;6800;50.940;6.940;2022-07-06T01:10:49;101725.00;;;27.45;30.71
13456;BME280;6800;50.940;6.940;2022-07-06T01:14:49;101738.09;;;27.40;30.51
13456;BME280;6800;50.940;6.940;2022-07-06T01:18:51;101726.81;;;27.53;30.57
13456;BME280;6800;50.940;6.940;2022-07-06T01:22:53;101728.22;;;27.25;30.87
13456;BME280;6800;50.940;6.940;2022-07-06T01:26:54;101723.34;;;27.20;30.52
13456;BME280;6800;50.940;6.940;2022-07-06T01:30:54;101720.00;;;27.10;30.73
13456;BME280;6800;50.940;6.940;2022-07-06T01:34:55;101728.72;;;26.88;31.50
13456;BME280;6800;50.940;6.940;2022-07-06T01:38:55;101720.66;;;27.20;30.70
13456;BME280;6800;50.940;6.940;2022-07-06T01:43:00;101719.97;;;27.26;31.04
13456;BME280;6800;50.940;6.940;2022-07-06T01:47:01;101718.16;;;26.94;31.83
13456;BME280;6800;50.940;6.940;2022-07-06T01:51:01;101723.50;;;27.02;30.96
13456;BME280;6800;50.940;6.940;2022-07-06T01:55:02;101724.72;;;27.08;31.05
13456;BME280;6800;50.940;6.940;2022-07-06T01:59:02;101712.13;;;26.92;31.43
13456;BME280;6800;50.940;6.940;2022-07-06T02:03:03;101716.34;;;26.87;31.61
13456;BME280;6800;50.940;6.940;2022-07-06T02:07:03;101717.50;;;26.92;31.65
13456;BME280;6800;50.940;6.940;2022-07-06T02:11:04;101724.34;;;26.79;31.37
13456;BME280;6800;50.940;6.940;2022-07-06T02:15:05;101728.38;;;26.99;31.20
13456;BME280;6800;50.940;6.940;2022-07-06T02:19:06;101726.22;;;26.86;31.37
13456;BME280;6800;50.940;6.940;2022-07-06T02:23:06;101725.72;;;26.91;31.12
13456;BME280;6800;50.940;6.940;2022-07-06T02:27:06;101731.72;;;26.85;31.54
13456;BME280;6800;50.940;6.940;2022-07-06T02:31:06;101725.16;;;26.71;31.84
13456;BME280;6800;50.940;6.940;2022-07-06T02:35:07;101732.72;;;26.84;31.31
13456;BME280;6800;50.940;6.940;2022-07-06T02:39:07;101728.38;;;26.83;31.48
13456;BME280;6800;50.940;6.940;2022-07-06T02:43:07;101719.78;;;26.71;31.68
13456;BME280;6800;50.940;6.940;2022-07-06T02:47:08;101721.16;;;26.75;31.73
13456;BME280;6800;50.940;6.940;2022-07-06T02:51:08;101721.28;;;26.58;31.79
13456;BME280;6800;50.940;6.940;2022-07-06T02:55:08;101720.97;;;26.69;31.81
13456;BME280;6800;50.940;6.940;2022-07-06T02:59:09;101724.13;;;26.64;31.46
13456;BME280;6800;50.940;6.940;2022-07-06T03:03:09;101726.25;;;26.45;31.87
13456;BME280;6800;50.940;6.940;2022-07-06T03:07:10;101726.63;;;26.50;32.29
13456;BME280;6800;50.940;6.940;2022-07-06T03:11:10;101731.59;;;26.28;32.13
13456;BME280;6800;50.940;6.940;2022-07-06T03:15:11;101727.53;;;26.16;32.78
13456;BME280;6800;50.940;6.940;2022-07-06T03:19:12;101731.28;;;26.40;32.46
13456;BME280;6800;50.940;6.940;2022-07-06T03:23:12;101741.19;;;26.47;31.88
13456;BME280;6800;50.940;6.940;2022-07-06T03:27:12;101735.97;;;26.29;32.51
13456;BME280;6800;50.940;6.940;2022-07-06T03:31:13;101733.59;;;26.26;32.37
13456;BME280;6800;50.940;6.940;2022-07-06T03:35:13;101744.84;;;26.38;32.18
13456;BME280;6800;50.940;6.940;2022-07-06T03:39:13;101740.41;;;26.13;32.36
13456;BME280;6800;50.940;6.940;2022-07-06T03:43:14;101749.88;;;25.99;33.00
13456;BME280;6800;50.940;6.940;2022-07-06T03:47:14;101741.25;;;26.13;32.54
13456;BME280;6800;50.940;6.940;2022-07-06T03:51:15;101749.88;;;25.99;32.92
13456;BME280;6800;50.940;6.940;2022-07-06T03:55:15;101743.59;;;26.16;32.30
13456;BME280;6800;50.940;6.940;2022-07-06T03:59:17;101741.19;;;26.05;32.65
13456;BME280;6800;50.940;6.940;2022-07-06T04:03:17;101751.91;;;26.05;32.95
13456;BME280;6800;50.940;6.940;2022-07-06T04:07:17;101752.38;;;26.01;33.19
13456;BME280;6800;50.940;6.940;2022-07-06T04:11:18;101743.34;;;26.36;32.74
13456;BME280;6800;50.940;6.940;2022-07-06T04:15:19;101749.97;;;26.23;32.63
13456;BME280;6800;50.940;6.940;2022-07-06T04:19:19;101747.53;;;26.38;32.47
13456;BME280;6800;50.940;6.940;2022-07-06T04:23:19;101752.38;;;26.35;32.67
13456;BME280;6800;50.940;6.940;2022-07-06T04:27:19;101759.72;;;26.33;32.92
13456;BME280;6800;50.940;6.940;2022-07-06T04:31:20;101755.41;;;26.48;32.32
13456;BME280;6800;50.940;6.940;2022-07-06T04:35:20;101761.38;;;26.83;31.98
13456;BME280;6800;50.940;6.940;2022-07-06T04:39:21;101766.25;;;27.04;31.69
13456;BME280;6800;50.940;6.940;2022-07-06T04:43:21;101763.88;;;27.25;31.63
13456;BME280;6800;50.940;6.940;2022-07-06T04:47:22;101762.91;;;27.10;31.80
13456;BME280;6800;50.940;6.940;2022-07-06T04:51:23;101761.22;;;27.49;31.45
13456;BME280;6800;50.940;6.940;2022-07-06T04:55:23;101761.13;;;27.98;30.13
13456;BME280;6800;50.940;6.940;2022-07-06T04:59:24;101757.91;;;27.94;30.35
13456;BME280;6800;50.940;6.940;2022-07-06T05:03:24;101768.91;;;28.23;30.16
13456;BME280;6800;50.940;6.940;2022-07-06T05:07:24;101766.28;;;28.46;29.96
13456;BME280;6800;50.940;6.940;2022-07-06T05:11:29;101771.34;;;28.41;29.42
13456;BME280;6800;50.940;6.940;2022-07-06T05:15:30;101773.56;;;28.29;30.09
13456;BME280;6800;50.940;6.940;2022-07-06T05:19:30;101772.09;;;28.19;30.14
13456;BME280;6800;50.940;6.940;2022-07-06T05:23:31;101772.78;;;29.27;28.59
13456;BME280;6800;50.940;6.940;2022-07-06T05:27:31;101769.63;;;29.76;27.97
13456;BME280;6800;50.940;6.940;2022-07-06T05:31:31;101773.91;;;29.85;27.89
13456;BME280;6800;50.940;6.940;2022-07-06T05:35:31;101770.47;;;30.05;27.11
13456;BME280;6800;50.940;6.940;2022-07-06T05:39:32;101778.28;;;30.15;27.48
13456;BME280;6800;50.940;6.940;2022-07-06T05:43:35;101770.78;;;29.96;27.69
13456;BME280;6800;50.940;6.940;2022-07-06T05:47:36;101767.41;;;29.65;27.94
13456;BME280;6800;50.940;6.940;2022-07-06T05:51:54;101771.31;;;29.91;27.92
13456;BME280;6800;50.940;6.940;2022-07-06T05:55:55;101775.09;;;30.12;27.46
13456;BME280;6800;50.940;6.940;2022-07-06T05:59:55;101776.97;;;30.97;26.48
13456;BME280;6800;50.940;6.940;2022-07-06T06:03:55;101783.03;;;31.76;26.05
13456;BME280;6800;50.940;6.940;2022-07-06T06:07:56;101787.81;;;32.08;25.49
13456;BME280;6800;50.940;6.940;2022-07-06T06:11:56;101791.13;;;32.03;25.08
13456;BME280;6800;50.940;6.940;2022-07-06T06:15:56;101793.03;;;31.82;25.33
13456;BME280;6800;50.940;6.940;2022-07-06T06:19:57;101790.63;;;31.59;25.34
13456;BME280;6800;50.940;6.940;2022-07-06T06:23:58;101788.16;;;33.19;23.57
13456;BME280;6800;50.940;6.940;2022-07-06T06:27:58;101794.38;;;33.85;23.46
13456;BME280;6800;50.940;6.940;2022-07-06T06:31:59;101796.28;;;33.85;22.54
13456;BME280;6800;50.940;6.940;2022-07-06T06:35:59;101787.88;;;34.12;21.89
13456;BME280;6800;50.940;6.940;2022-07-06T06:40:02;101790.13;;;34.22;22.01
13456;BME280;6800;50.940;6.940;2022-07-06T06:44:03;101797.22;;;34.29;22.19
13456;BME280;6800;50.940;6.940;2022-07-06T06:48:03;101795.75;;;36.01;20.78
13456;BME280;6800;50.940;6.940;2022-07-06T06:52:04;101789.53;;;36.30;20.31
13456;BME280;6800;50.940;6.940;2022-07-06T06:56:04;101780.50;;;36.77;19.35
13456;BME280;6800;50.940;6.940;2022-07-06T07:00:05;101789.03;;;35.11;20.94
13456;BME280;6800;50.940;6.940;2022-07-06T07:04:06;101801.69;;;36.46;19.95
13456;BME280;6800;50.940;6.940;2022-07-06T07:08:06;101802.75;;;35.48;20.61
13456;BME280;6800;50.940;6.940;2022-07-06T07:12:07;101798.25;;;35.35;21.08
13456;BME280;6800;50.940;6.940;2022-07-06T07:16:07;101797.06;;;37.06;18.89
13456;BME280;6800;50.940;6.940;2022-07-06T07:20:08;101798.69;;;37.36;18.46
13456;BME280;6800;50.940;6.940;2022-07-06T07:24:09;101790.41;;;36.72;19.20
13456;BME280;6800;50.940;6.940;2022-07-06T07:28:10;101793.25;;;36.18;19.48
13456;BME280;6800;50.940;6.940;2022-07-06T07:32:10;101795.84;;;35.45;20.33
13456;BME280;6800;50.940;6.940;2022-07-06T07:36:10;101795.84;;;34.58;20.91
13456;BME280;6800;50.940;6.940;2022-07-06T07:40:11;101804.13;;;34.70;21.28
13456;BME280;6800;50.940;6.940;2022-07-06T07:44:11;101814.75;;;34.20;21.31
13456;BME280;6800;50.940;6.940;2022-07-06T07:48:12;101805.38;;;35.05;20.50
13456;BME280;6800;50.940;6.940;2022-07-06T07:52:15;101805.09;;;36.23;18.57
13456;BME280;6800;50.940;6.940;2022-07-06T07:56:15;101805.59;;;35.03;19.83
13456;BME280;6800;50.940;6.940;2022-07-06T08:00:16;101801.28;;;34.89;20.81
13456;BME280;6800;50.940;6.940;2022-07-06T08:04:16;101804.88;;;34.83;20.34
13456;BME280;6800;50.940;6.940;2022-07-06T08:08:17;101800.69;;;33.59;21.01
13456;BME280;6800;50.940;6.940;2022-07-06T08:12:17;101800.94;;;35.10;20.36
13456;BME280;6800;50.940;6.940;2022-07-06T08:16:18;101792.56;;;36.22;18.57
13456;BME280;6800;50.940;6.940;2022-07-06T08:20:18;101790.84;;;38.38;16.59
13456;BME280;6800;50.940;6.940;2022-07-06T08:24:18;101789.78;;;37.52;16.65
13456;BME280;6800;50.940;6.940;2022-07-06T08:28:19;101799.84;;;36.40;17.65
13456;BME280;6800;50.940;6.940;2022-07-06T08:32:19;101803.00;;;34.84;19.50
13456;BME280;6800;50.940;6.940;2022-07-06T08:36:20;101800.88;;;35.17;19.47
13456;BME280;6800;50.940;6.940;2022-07-06T08:40:20;101797.66;;;34.64;19.50
13456;BME280;6800;50.940;6.940;2022-07-06T08:44:21;101797.31;;;33.77;20.96
13456;BME280;6800;50.940;6.940;2022-07-06T08:48:23;101807.75;;;33.28;21.21
13456;BME280;6800;50.940;6.940;2022-07-06T08:52:24;101807.78;;;33.67;21.79
13456;BME280;6800;50.940;6.940;2022-07-06T08:56:25;101799.41;;;34.01;21.07
13456;BME280;6800;50.940;6.940;2022-07-06T09:00:26;101794.00;;;33.62;21.74
13456;BME280;6800;50.940;6.940;2022-07-06T09:04:26;101800.19;;;34.08;19.80
13456;BME280;6800;50.940;6.940;2022-07-06T09:08:27;101791.66;;;34.55;20.29
13456;BME280;6800;50.940;6.940;2022-07-06T09:12:27;101802.75;;;34.54;20.50
13456;BME280;6800;50.940;6.940;2022-07-06T09:16:29;101799.81;;;33.78;21.01
13456;BME280;6800;50.940;6.940;2022-07-06T09:20:30;101814.00;;;33.41;22.13
13456;BME280;6800;50.940;6.940;2022-07-06T09:24:31;101808.53;;;34.13;21.40
13456;BME280;6800;50.940;6.940;2022-07-06T09:28:42;101802.16;;;33.55;21.64
13456;BME280;6800;50.940;6.940;2022-07-06T09:32:45;101802.56;;;33.26;21.66
13456;BME280;6800;50.940;6.940;2022-07-06T09:36:48;101805.91;;;33.54;21.42
13456;BME280;6800;50.940;6.940;2022-07-06T09:40:49;101814.63;;;33.17;21.71
13456;BME280;6800;50.940;6.940;2022-07-06T09:44:50;101810.88;;;33.64;21.31
13456;BME280;6800;50.940;6.940;2022-07-06T09:48:53;101805.03;;;33.93;20.56
13456;BME280;6800;50.940;6.940;2022-07-06T09:52:54;101805.66;;;33.43;20.43
13456;BME280;6800;50.940;6.940;2022-07-06T09:56:56;101812.94;;;33.88;20.41
13456;BME280;6800;50.940;6.940;2022-07-06T10:00:57;101813.88;;;36.73;18.30
13456;BME280;6800;50.940;6.940;2022-07-06T10:04:58;101807.44;;;36.67;18.20
13456;BME280;6800;50.940;6.940;2022-07-06T10:08:59;101803.78;;;37.03;17.89
13456;BME280;6800;50.940;6.940;2022-07-06T10:12:59;101806.00;;;38.45;17.07
13456;BME280;6800;50.940;6.940;2022-07-06T10:17:02;101794.41;;;38.66;16.61
13456;BME280;6800;50.940;6.940;2022-07-06T10:21:03;101800.44;;;38.00;17.16
13456;BME280;6800;50.940;6.940;2022-07-06T10:25:05;101803.97;;;37.20;17.04
13456;BME280;6800;50.940;6.940;2022-07-06T10:29:06;101795.66;;;37.15;17.73
13456;BME280;6800;50.940;6.940;2022-07-06T10:33:07;101791.16;;;39.47;15.74
13456;BME280;6800;50.940;6.940;2022-07-06T10:37:21;101783.31;;;40.32;14.91
13456;BME280;6800;50.940;6.940;2022-07-06T10:41:33;101784.53;;;39.77;14.73
13456;BME280;6800;50.940;6.940;2022-07-06T10:49:48;101770.47;;;41.55;14.09
13456;BME280;6800;50.940;6.940;2022-07-06T10:53:56;101768.97;;;39.60;15.08
13456;BME280;6800;50.940;6.940;2022-07-06T10:57:57;101767.25;;;40.14;14.32
13456;BME280;6800;50.940;6.940;2022-07-06T11:02:17;101772.41;;;39.72;14.61
13456;BME280;6800;50.940;6.940;2022-07-06T11:06:18;101769.94;;;41.21;13.52
13456;BME280;6800;50.940;6.940;2022-07-06T11:10:22;101764.19;;;39.72;14.48
13456;BME280;6800;50.940;6.940;2022-07-06T11:14:22;101759.28;;;37.90;16.17
13456;BME280;6800;50.940;6.940;2022-07-06T11:18:23;101757.88;;;38.84;15.50
13456;BME280;6800;50.940;6.940;2022-07-06T11:22:26;101758.56;;;38.63;15.43
13456;BME280;6800;50.940;6.940;2022-07-06T11:26:27;101767.78;;;38.45;14.76
13456;BME280;6800;50.940;6.940;2022-07-06T11:30:28;101770.19;;;38.42;14.59
13456;BME280;6800;50.940;6.940;2022-07-06T11:34:32;101760.34;;;39.52;13.85
13456;BME280;6800;50.940;6.940;2022-07-06T11:38:34;101764.75;;;40.61;13.01
13456;BME280;6800;50.940;6.940;2022-07-06T11:42:34;101754.97;;;39.24;14.18
13456;BME280;6800;50.940;6.940;2022-07-06T11:46:36;101753.22;;;39.01;14.08
13456;BME280;6800;50.940;6.940;2022-07-06T11:50:36;101754.47;;;38.49;14.53
13456;BME280;6800;50.940;6.940;2022-07-06T11:54:38;101753.03;;;38.30;14.87
13456;BME280;6800;50.940;6.940;2022-07-06T11:58:39;101753.47;;;36.64;17.27
13456;BME280;6800;50.940;6.940;2022-07-06T12:02:40;101758.91;;;36.94;16.82
13456;BME280;6800;50.940;6.940;2022-07-06T12:06:43;101755.16;;;38.28;16.01
13456;BME280;6800;50.940;6.940;2022-07-06T12:10:43;101754.41;;;37.69;16.43
13456;BME280;6800;50.940;6.940;2022-07-06T12:14:45;101768.81;;;38.28;16.04
13456;BME280;6800;50.940;6.940;2022-07-06T12:18:47;101750.66;;;39.83;14.94
13456;BME280;6800;50.940;6.940;2022-07-06T12:22:48;101743.78;;;39.58;15.29
13456;BME280;6800;50.940;6.940;2022-07-06T12:26:49;101734.94;;;39.18;15.08
13456;BME280;6800;50.940;6.940;2022-07-06T12:30:49;101739.63;;;38.16;15.26
13456;BME280;6800;50.940;6.940;2022-07-06T12:35:03;101730.03;;;38.25;15.42
13456;BME280;6800;50.940;6.940;2022-07-06T12:39:10;101727.56;;;37.49;16.26
13456;BME280;6800;50.940;6.940;2022-07-06T12:43:10;101721.16;;;38.07;15.98
13456;BME280;6800;50.940;6.940;2022-07-06T12:47:11;101728.34;;;37.27;15.91
13456;BME280;6800;50.940;6.940;2022-07-06T12:51:14;101721.94;;;37.56;16.04
13456;BME280;6800;50.940;6.940;2022-07-06T12:55:14;101701.81;;;38.08;15.80
13456;BME280;6800;50.940;6.940;2022-07-06T12:59:22;101707.34;;;37.74;15.63
13456;BME280;6800;50.940;6.940;2022-07-06T13:03:22;101705.63;;;37.44;16.14
13456;BME280;6800;50.940;6.940;2022-07-06T13:07:23;101701.59;;;37.24;15.79
13456;BME280;6800;50.940;6.940;2022-07-06T13:11:24;101701.78;;;37.80;15.53
13456;BME280;6800;50.940;6.940;2022-07-06T13:15:24;101701.34;;;37.48;16.32
13456;BME280;6800;50.940;6.940;2022-07-06T13:19:24;101699.31;;;37.21;16.09
13456;BME280;6800;50.940;6.940;2022-07-06T13:23:25;101693.06;;;37.09;16.59
13456;BME280;6800;50.940;6.940;2022-07-06T13:27:26;101697.50;;;37.84;15.55
13456;BME280;6800;50.940;6.940;2022-07-06T13:31:27;101690.66;;;36.89;16.15
13456;BME280;6800;50.940;6.940;2022-07-06T13:35:27;101687.00;;;37.53;15.71
13456;BME280;6800;50.940;6.940;2022-07-06T13:39:28;101681.44;;;37.02;16.66
13456;BME280;6800;50.940;6.940;2022-07-06T13:43:28;101691.69;;;36.76;17.36
13456;BME280;6800;50.940;6.940;2022-07-06T13:47:35;101680.94;;;36.11;17.66
13456;BME280;6800;50.940;6.940;2022-07-06T13:51:36;101679.38;;;36.33;17.37
13456;BME280;6800;50.940;6.940;2022-07-06T13:55:37;101674.53;;;36.64;16.70
13456;BME280;6800;50.940;6.940;2022-07-06T13:59:38;101672.44;;;36.90;17.26
13456;BME280;6800;50.940;6.940;2022-07-06T14:03:38;101658.69;;;36.02;17.63
13456;BME280;6800;50.940;6.940;2022-07-06T14:07:39;101661.81;;;36.17;17.46
13456;BME280;6800;50.940;6.940;2022-07-06T14:11:39;101667.66;;;36.32;17.43
13456;BME280;6800;50.940;6.940;2022-07-06T14:15:39;101669.41;;;35.24;18.14
13456;BME280;6800;50.940;6.940;2022-07-06T14:19:40;101664.97;;;35.66;17.92
13456;BME280;6800;50.940;6.940;2022-07-06T14:23:40;101668.34;;;36.28;18.10
13456;BME280;6800;50.940;6.940;2022-07-06T14:27:40;101646.94;;;35.54;18.07
13456;BME280;6800;50.940;6.940;2022-07-06T14:31:41;101652.78;;;35.33;18.82
13456;BME280;6800;50.940;6.940;2022-07-06T14:35:46;101654.66;;;35.86;18.30
13456;BME280;6800;50.940;6.940;2022-07-06T14:39:53;101647.84;;;35.48;18.32
13456;BME280;6800;50.940;6.940;2022-07-06T14:43:53;101641.41;;;35.60;18.11
13456;BME280;6800;50.940;6.940;2022-07-06T14:47:54;101638.16;;;35.70;18.01
13456;BME280;6800;50.940;6.940;2022-07-06T14:51:54;101632.59;;;35.65;18.07
13456;BME280;6800;50.940;6.940;2022-07-06T14:55:55;101637.78;;;35.66;17.86
13456;BME280;6800;50.940;6.940;2022-07-06T14:59:55;101630.97;;;35.75;17.96
13456;BME280;6800;50.940;6.940;2022-07-06T15:03:56;101628.06;;;35.59;17.98
13456;BME280;6800;50.940;6.940;2022-07-06T15:07:56;101620.97;;;35.40;18.33
13456;BME280;6800;50.940;6.940;2022-07-06T15:11:56;101610.53;;;35.37;17.88
13456;BME280;6800;50.940;6.940;2022-07-06T15:15:57;101620.38;;;34.70;18.67
13456;BME280;6800;50.940;6.940;2022-07-06T15:19:58;101617.84;;;34.93;18.70
13456;BME280;6800;50.940;6.940;2022-07-06T15:23:59;101616.88;;;35.30;18.36
13456;BME280;6800;50.940;6.940;2022-07-06T15:27:59;101612.41;;;35.36;18.33
13456;BME280;6800;50.940;6.940;2022-07-06T15:31:59;101593.94;;;35.26;18.57
13456;BME280;6800;50.940;6.940;2022-07-06T15:36:00;101594.97;;;35.80;17.57
13456;BME280;6800;50.940;6.940;2022-07-06T15:40:02;101580.09;;;35.46;18.16
13456;BME280;6800;50.940;6.940;2022-07-06T15:44:03;101579.97;;;35.05;18.74
13456;BME280;6800;50.940;6.940;2022-07-06T15:48:04;101581.75;;;34.93;18.24
13456;BME280;6800;50.940;6.940;2022-07-06T15:52:05;101587.13;;;34.75;18.28
13456;BME280;6800;50.940;6.940;2022-07-06T15:56:05;101578.06;;;35.23;18.25
13456;BME280;6800;50.940;6.940;2022-07-06T16:00:06;101571.44;;;35.19;18.33
13456;BME280;6800;50.940;6.940;2022-07-06T16:04:06;101562.47;;;34.76;18.83
13456;BME280;6800;50.940;6.940;2022-07-06T16:08:07;101553.59;;;34.87;18.53
13456;BME280;6800;50.940;6.940;2022-07-06T16:12:08;101551.22;;;35.15;18.08
13456;BME280;6800;50.940;6.940;2022-07-06T16:16:10;101552.81;;;34.62;18.95
13456;BME280;6800;50.940;6.940;2022-07-06T16:20:11;101550.53;;;35.20;18.83
13456;BME280;6800;50.940;6.940;2022-07-06T16:24:13;101546.72;;;34.85;18.67
13456;BME280;6800;50.940;6.940;2022-07-06T16:28:13;101535.34;;;33.96;19.44
13456;BME280;6800;50.940;6.940;2022-07-06T16:32:14;101535.94;;;34.78;19.05
13456;BME280;6800;50.940;6.940;2022-07-06T16:36:14;101529.16;;;34.69;18.51
13456;BME280;6800;50.940;6.940;2022-07-06T16:40:16;101534.47;;;34.58;18.68
13456;BME280;6800;50.940;6.940;2022-07-06T16:44:17;101527.47;;;34.50;19.03
13456;BME280;6800;50.940;6.940;2022-07-06T16:48:18;101531.47;;;34.41;19.13
13456;BME280;6800;50.940;6.940;2022-07-06T16:52:19;101525.06;;;34.78;18.54
13456;BME280;6800;50.940;6.940;2022-07-06T16:56:19;101515.38;;;34.46;18.73
13456;BME280;6800;50.940;6.940;2022-07-06T17:00:19;101519.94;;;34.52;18.88
13456;BME280;6800;50.940;6.940;2022-07-06T17:04:22;101510.38;;;34.43;18.81
13456;BME280;6800;50.940;6.940;2022-07-06T17:08:23;101511.00;;;34.20;19.08
13456;BME280;6800;50.940;6.940;2022-07-06T17:12:23;101508.13;;;33.53;19.90
13456;BME280;6800;50.940;6.940;2022-07-06T17:16:25;101504.25;;;34.05;19.58
13456;BME280;6800;50.940;6.940;2022-07-06T17:20:26;101505.25;;;34.10;19.32
13456;BME280;6800;50.940;6.940;2022-07-06T17:24:27;101501.63;;;34.41;19.09
13456;BME280;6800;50.940;6.940;2022-07-06T17:28:27;101490.78;;;34.84;18.92
13456;BME280;6800;50.940;6.940;2022-07-06T17:32:28;101487.97;;;34.72;18.82
13456;BME280;6800;50.940;6.940;2022-07-06T17:36:28;101487.47;;;35.00;19.27
13456;BME280;6800;50.940;6.940;2022-07-06T17:40:29;101493.75;;;35.00;19.28
13456;BME280;6800;50.940;6.940;2022-07-06T17:44:29;101496.88;;;34.61;19.13
13456;BME280;6800;50.940;6.940;2022-07-06T17:48:29;101499.81;;;34.60;19.50
13456;BME280;6800;50.940;6.940;2022-07-06T17:52:30;101487.91;;;34.79;19.02
13456;BME280;6800;50.940;6.940;2022-07-06T17:56:30;101494.00;;;34.56;19.58
13456;BME280;6800;50.940;6.940;2022-07-06T18:00:30;101485.84;;;34.74;19.70
13456;BME280;6800;50.940;6.940;2022-07-06T18:04:32;101488.75;;;34.61;19.94
13456;BME280;6800;50.940;6.940;2022-07-06T18:08:32;101478.03;;;35.02;19.52
13456;BME280;6800;50.940;6.940;2022-07-06T18:12:33;101480.75;;;35.20;19.37
13456;BME280;6800;50.940;6.940;2022-07-06T18:16:35;101486.03;;;34.79;19.75
13456;BME280;6800;50.940;6.940;2022-07-06T18:20:35;101480.75;;;35.20;19.73
13456;BME280;6800;50.940;6.940;2022-07-06T18:24:35;101470.50;;;35.04;19.83
13456;BME280;6800;50.940;6.940;2022-07-06T18:28:36;101466.09;;;35.21;19.79
13456;BME280;6800;50.940;6.940;2022-07-06T18:32:36;101463.91;;;34.94;19.92
13456;BME280;6800;50.940;6.940;2022-07-06T18:36:36;101465.53;;;35.01;19.79
13456;BME280;6800;50.940;6.940;2022-07-06T18:40:37;101461.69;;;34.91;19.55
13456;BME280;6800;50.940;6.940;2022-07-06T18:44:38;101463.69;;;34.95;19.84
13456;BME280;6800;50.940;6.940;2022-07-06T18:48:38;101464.94;;;34.99;19.77
13456;BME280;6800;50.940;6.940;2022-07-06T18:52:38;101467.09;;;34.73;19.99
13456;BME280;6800;50.940;6.940;2022-07-06T18:56:39;101467.03;;;34.61;20.08
13456;BME280;6800;50.940;6.940;2022-07-06T19:00:39;101459.03;;;34.66;20.04
13456;BME280;6800;50.940;6.940;2022-07-06T19:04:43;101453.16;;;34.69;20.11
13456;BME280;6800;50.940;6.940;2022-07-06T19:08:45;101450.84;;;34.48;20.49
13456;BME280;6800;50.940;6.940;2022-07-06T19:12:45;101453.31;;;34.31;20.78
13456;BME280;6800;50.940;6.940;2022-07-06T19:16:45;101448.03;;;34.18;20.86
13456;BME280;6800;50.940;6.940;2022-07-06T19:20:46;101458.16;;;34.05;21.18
13456;BME280;6800;50.940;6.940;2022-07-06T19:24:46;101456.25;;;33.80;21.55
13456;BME280;6800;50.940;6.940;2022-07-06T19:28:46;101453.34;;;33.75;21.90
13456;BME280;6800;50.940;6.940;2022-07-06T19:32:47;101447.00;;;33.88;21.33
13456;BME280;6800;50.940;6.940;2022-07-06T19:36:47;101446.22;;;33.81;21.76
13456;BME280;6800;50.940;6.940;2022-07-06T19:40:47;101447.97;;;33.94;21.54
13456;BME280;6800;50.940;6.940;2022-07-06T19:44:48;101446.31;;;33.68;22.49
13456;BME280;6800;50.940;6.940;2022-07-06T19:48:48;101454.38;;;33.74;22.06
13456;BME280;6800;50.940;6.940;2022-07-06T19:52:48;101453.78;;;33.72;22.19
13456;BME280;6800;50.940;6.940;2022-07-06T19:56:49;101457.09;;;33.74;22.41
13456;BME280;6800;50.940;6.940;2022-07-06T20:00:49;101466.06;;;33.37;22.51
13456;BME280;6800;50.940;6.940;2022-07-06T20:04:52;101466.91;;;33.38;22.79
13456;BME280;6800;50.940;6.940;2022-07-06T20:08:53;101459.97;;;33.48;22.67
13456;BME280;6800;50.940;6.940;2022-07-06T20:12:54;101463.34;;;33.44;22.88
13456;BME280;6800;50.940;6.940;2022-07-06T20:16:54;101465.75;;;33.21;23.15
13456;BME280;6800;50.940;6.940;2022-07-06T20:20:55;101462.63;;;33.17;23.58
13456;BME280;6800;50.940;6.940;2022-07-06T20:24:57;101463.09;;;33.45;22.93
13456;BME280;6800;50.940;6.940;2022-07-06T20:28:58;101457.06;;;33.43;22.90
13456;BME280;6800;50.940;6.940;2022-07-06T20:32:58;101455.59;;;33.54;22.94
13456;BME280;6800;50.940;6.940;2022-07-06T20:36:58;101458.06;;;33.49;22.92
13456;BME280;6800;50.940;6.940;2022-07-06T20:40:58;101458.75;;;33.44;23.07
13456;BME280;6800;50.940;6.940;2022-07-06T20:44:59;101459.41;;;33.40;23.36
13456;BME280;6800;50.940;6.940;2022-07-06T20:48:59;101452.16;;;33.34;23.01
13456;BME280;6800;50.940;6.940;2022-07-06T20:52:59;101452.16;;;33.34;23.33
13456;BME280;6800;50.940;6.940;2022-07-06T20:57:02;101452.72;;;33.42;23.46
13456;BME280;6800;50.940;6.940;2022-07-06T21:01:02;101449.00;;;33.37;23.57
13456;BME280;6800;50.940;6.940;2022-07-06T21:05:03;101456.25;;;33.43;23.49
13456;BME280;6800;50.940;6.940;2022-07-06T21:09:05;101460.66;;;33.37;23.74
13456;BME280;6800;50.940;6.940;2022-07-06T21:13:05;101466.03;;;33.44;23.97
13456;BME280;6800;50.940;6.940;2022-07-06T21:17:06;101453.94;;;33.46;23.47
13456;BME280;6800;50.940;6.940;2022-07-06T21:21:07;101453.75;;;33.41;23.66